Kezdőlap
METAR-TAF:

METAR-TAF

Repülőterek :

Majuro, Marshall-szigetek

földrajzi szélesség: 07-04N, földrajzi hosszúság: 171-17E, magasság: 2 m

Jelenlegi meteorológiai megfigyelések

A jelentés 5 órával és 14 perccel ezelõtt készült, 02:51 UTC
Kelet-északkeleti szél 10 kt
Hőmérséklet 29°C
Páratartalom 79%
Légköri nyomás 1005 hPa
Látótávolság: 24.1 km
Kevés felhő 1500 lábon
Szórványos felhőzet 5000 lábon
Szakadozott felhőzet 12000 lábon
Szakadozott felhőzet 30000 lábon

METAR: PKMJ 230251Z 06010KT 15SM FEW015 SCT050 BKN120 BKN300 29/25 A2967 RMK LAST

Idő: 20:05 (08:05 UTC)

Előrejelzés

A jelentés 2 órával és 41 perccel ezelõtt készült, 05:24 UTC
Az előrejelzés 23-én 06 óra UTC és 24-én 06 óra UTC között érvényes
Keleti szél 12 kt
Látótávolság: 10 km
Kevés felhő 1800 lábon
Szórványos felhőzet 4000 lábon
Szórványos felhőzet 12000 lábon
Záporok a közelben

TAF: PKMJ 230524Z 2306/2406 08012KT P6SM VCSH FEW018 SCT040 SCT120

Meteorológiai megfigyelések és előrejelzések több, mint 4000 repülőtéren (METAR és TAF jelentéseket).

A térképen piros és sárga pontok jelzik az elérhető meteorológiai állomásokat.

Mozgassa az egeret a pont fölött, hogy megjelenjen az állomás neve.

Azután kattintson az időjárási megfigyelések és előrejelzések megtekintéséhez.

A térkép megváltoztatása: kattintson a fekete keresztel jelölt zöld gombra ráközelítéshez, a vonallal jelölt zöld gombra távolításhoz, vagy a zöld nyilakra a szomszédos térképek eléréséhez.


METAR-TAF: